Time;durP1;ratioP1;P1;durP2;ratioP2;P2;SDS_P1;SDS_P2;PMS_P1;PMS_P2;Temp;Humidity;BMP_temperature;BMP_pressure;BME280_temperature;BME280_humidity;BME280_pressure;Samples;Min_cycle;Max_cycle;Signal;HPM_P1;HPM_P2
2023/08/02 00:00:59;;;;;;;4.63;3.38;;;20.10;96.90;;;;;;10325936;28;20469;-68
2023/08/02 00:06:00;;;;;;;5.37;3.37;;;20.00;96.90;;;;;;10326333;28;20953;-68
2023/08/02 00:11:03;;;;;;;3.88;3.00;;;20.00;96.90;;;;;;10324774;28;20424;-67
2023/08/02 00:16:03;;;;;;;4.55;3.30;;;20.00;97.00;;;;;;10325621;28;20420;-68
2023/08/02 00:21:04;;;;;;;5.10;3.20;;;20.00;96.90;;;;;;10324255;28;20405;-68
2023/08/02 00:26:04;;;;;;;5.70;3.47;;;20.00;96.90;;;;;;10314791;28;20422;-67
2023/08/02 00:31:05;;;;;;;5.33;3.50;;;20.10;97.00;;;;;;10325395;28;20414;-67
2023/08/02 00:36:06;;;;;;;6.50;3.67;;;20.00;96.90;;;;;;10323829;28;20448;-67
2023/08/02 00:41:12;;;;;;;4.38;3.58;;;20.00;97.20;;;;;;10320902;28;20401;-68
2023/08/02 00:46:19;;;;;;;6.00;3.47;;;20.00;97.00;;;;;;10324889;28;20410;-67
2023/08/02 00:51:20;;;;;;;5.00;3.40;;;20.00;97.00;;;;;;10317945;28;20930;-67
2023/08/02 00:56:20;;;;;;;4.57;3.40;;;20.00;97.00;;;;;;10310571;28;20501;-67
2023/08/02 01:01:21;;;;;;;4.53;3.60;;;19.90;97.00;;;;;;10319880;28;20394;-67
2023/08/02 01:06:50;;;;;;;4.67;3.77;;;19.90;96.90;;;;;;10325338;28;20801;-68
2023/08/02 01:12:05;;;;;;;5.15;3.60;;;19.90;96.90;;;;;;10318880;28;20419;-67
2023/08/02 01:17:07;;;;;;;6.15;3.88;;;19.90;96.90;;;;;;10320045;28;20429;-67
2023/08/02 01:22:08;;;;;;;5.47;3.80;;;19.90;96.90;;;;;;10314436;28;20911;-67
2023/08/02 01:27:19;;;;;;;6.38;4.07;;;19.90;97.00;;;;;;10322671;28;20409;-67
2023/08/02 01:32:21;;;;;;;5.60;3.75;;;19.90;97.00;;;;;;10326535;28;20465;-67
2023/08/02 01:37:22;;;;;;;8.07;4.15;;;19.90;97.00;;;;;;10328696;28;20461;-67
2023/08/02 01:42:23;;;;;;;7.70;4.10;;;19.90;97.00;;;;;;10332201;28;20396;-67
2023/08/02 01:47:23;;;;;;;6.37;4.00;;;19.90;97.00;;;;;;10321366;28;20414;-67
2023/08/02 01:52:24;;;;;;;6.87;4.17;;;19.80;96.90;;;;;;10326445;28;20554;-68
2023/08/02 01:57:24;;;;;;;6.57;4.20;;;19.80;96.90;;;;;;10327365;28;20421;-67
2023/08/02 02:02:25;;;;;;;7.57;4.20;;;19.80;96.90;;;;;;10323856;28;20471;-68
2023/08/02 02:07:26;;;;;;;5.90;4.37;;;19.80;96.90;;;;;;10331709;28;20422;-68
2023/08/02 02:12:27;;;;;;;7.25;4.35;;;19.80;97.00;;;;;;10332264;28;20937;-67
2023/08/02 02:17:27;;;;;;;6.20;4.75;;;20.20;97.10;;;;;;10325850;28;20421;-67
2023/08/02 02:22:28;;;;;;;8.20;5.07;;;19.80;96.90;;;;;;10323385;28;20914;-67
2023/08/02 02:27:28;;;;;;;8.17;4.47;;;19.80;96.90;;;;;;10323072;28;20437;-67
2023/08/02 02:32:29;;;;;;;5.97;4.60;;;19.80;96.90;;;;;;10324522;28;20443;-67
2023/08/02 02:37:30;;;;;;;8.10;4.60;;;19.80;96.90;;;;;;10328219;28;20497;-68
2023/08/02 02:42:30;;;;;;;5.70;4.53;;;19.70;96.90;;;;;;10318811;28;20403;-67
2023/08/02 02:47:31;;;;;;;8.33;4.83;;;19.70;96.90;;;;;;10324288;28;20413;-67
2023/08/02 02:52:34;;;;;;;7.93;4.95;;;19.70;96.90;;;;;;10324404;28;20697;-67
2023/08/02 02:57:35;;;;;;;7.63;4.75;;;19.60;96.80;;;;;;10325153;28;20484;-67
2023/08/02 03:02:36;;;;;;;8.23;4.83;;;19.70;96.80;;;;;;10328777;28;20615;-67
2023/08/02 03:07:36;;;;;;;8.67;5.00;;;19.70;96.80;;;;;;10320708;28;20434;-67
2023/08/02 03:12:37;;;;;;;8.73;4.90;;;19.70;96.80;;;;;;10317064;28;20402;-67
2023/08/02 03:17:38;;;;;;;7.60;4.73;;;19.60;96.80;;;;;;10327277;28;20418;-67
2023/08/02 03:22:38;;;;;;;8.57;4.70;;;19.60;96.80;;;;;;10322266;28;20402;-67
2023/08/02 03:27:39;;;;;;;6.93;4.63;;;19.60;96.80;;;;;;10323637;28;21002;-67
2023/08/02 03:32:40;;;;;;;8.33;4.70;;;19.60;96.80;;;;;;10319730;28;20404;-67
2023/08/02 03:37:40;;;;;;;9.03;5.10;;;19.60;96.80;;;;;;10322757;28;20418;-67
2023/08/02 03:42:41;;;;;;;7.63;5.10;;;19.60;96.70;;;;;;10320249;28;20405;-67
2023/08/02 03:47:42;;;;;;;7.87;4.70;;;19.60;96.80;;;;;;10317077;28;20402;-67
2023/08/02 03:52:42;;;;;;;7.93;5.13;;;19.50;96.80;;;;;;10318623;28;20971;-67
2023/08/02 03:57:43;;;;;;;9.60;5.20;;;19.50;96.70;;;;;;10313873;28;20423;-67
2023/08/02 04:02:44;;;;;;;9.03;5.33;;;19.50;96.70;;;;;;10314439;28;20441;-67
2023/08/02 04:07:44;;;;;;;9.57;5.40;;;19.50;96.70;;;;;;10317107;28;20441;-67
2023/08/02 04:12:45;;;;;;;8.53;5.47;;;19.50;96.70;;;;;;10313929;28;20412;-67
2023/08/02 04:17:48;;;;;;;8.70;5.32;;;19.50;96.70;;;;;;10316716;28;20835;-67
2023/08/02 04:22:49;;;;;;;7.80;5.30;;;19.50;96.70;;;;;;10346156;28;20759;-67
2023/08/02 04:27:50;;;;;;;7.55;5.35;;;19.50;96.70;;;;;;10317052;28;20413;-67
2023/08/02 04:32:51;;;;;;;7.50;5.30;;;19.50;96.70;;;;;;10316823;28;20767;-67
2023/08/02 04:37:51;;;;;;;8.43;5.50;;;19.40;96.70;;;;;;10311677;28;20807;-67
2023/08/02 04:42:53;;;;;;;8.48;5.13;;;19.40;96.70;;;;;;10314784;28;20419;-67
2023/08/02 04:47:55;;;;;;;7.43;4.80;;;19.60;96.70;;;;;;10320967;28;20433;-67
2023/08/02 04:52:55;;;;;;;10.25;5.35;;;19.40;96.70;;;;;;10320938;28;20411;-67
2023/08/02 04:57:56;;;;;;;8.53;5.47;;;19.40;96.80;;;;;;10319763;28;20422;-67
2023/08/02 05:02:56;;;;;;;8.70;5.53;;;19.40;96.80;;;;;;10314310;28;20403;-67
2023/08/02 05:07:57;;;;;;;9.63;5.53;;;19.40;96.70;;;;;;10322055;28;20496;-67
2023/08/02 05:12:58;;;;;;;8.23;5.10;;;19.40;96.70;;;;;;10315253;28;20442;-67
2023/08/02 05:17:58;;;;;;;8.90;5.20;;;19.40;96.60;;;;;;10310664;28;20968;-67
2023/08/02 05:22:59;;;;;;;9.20;5.20;;;19.40;96.60;;;;;;10321220;28;20455;-67
2023/08/02 05:28:00;;;;;;;9.25;5.35;;;19.40;96.50;;;;;;10312822;28;20904;-67
2023/08/02 05:33:01;;;;;;;8.23;5.20;;;19.60;96.60;;;;;;10322364;28;20410;-67
2023/08/02 05:38:02;;;;;;;8.23;5.07;;;19.40;96.50;;;;;;10313681;28;20789;-67
2023/08/02 05:43:03;;;;;;;8.50;5.00;;;19.40;96.50;;;;;;10313155;28;20408;-67
2023/08/02 05:48:04;;;;;;;7.83;5.40;;;19.40;96.40;;;;;;10316135;28;20420;-68
2023/08/02 05:53:04;;;;;;;7.65;4.80;;;19.40;96.40;;;;;;10315364;28;20416;-68
2023/08/02 05:58:05;;;;;;;7.90;4.90;;;19.40;96.40;;;;;;10299039;28;20438;-67
2023/08/02 06:03:05;;;;;;;8.05;4.90;;;19.40;96.40;;;;;;10295796;28;20942;-67
2023/08/02 06:08:06;;;;;;;7.43;5.07;;;19.40;96.40;;;;;;10310872;28;20414;-67
2023/08/02 06:13:07;;;;;;;8.53;5.17;;;19.40;96.40;;;;;;10327053;28;20920;-67
2023/08/02 06:18:07;;;;;;;7.83;4.53;;;19.40;96.50;;;;;;10327739;28;20794;-67
2023/08/02 06:23:08;;;;;;;7.17;4.70;;;19.40;96.60;;;;;;10324515;28;20415;-67
2023/08/02 06:28:08;;;;;;;7.50;4.80;;;19.40;96.60;;;;;;10313537;28;20460;-67
2023/08/02 06:33:09;;;;;;;7.07;4.63;;;19.40;96.50;;;;;;10329094;28;20410;-67
2023/08/02 06:38:10;;;;;;;7.13;4.90;;;19.40;96.50;;;;;;10318475;28;20918;-66
2023/08/02 06:43:10;;;;;;;6.27;5.00;;;19.40;96.60;;;;;;10320291;28;20486;-71
2023/08/02 06:48:11;;;;;;;8.13;4.60;;;19.40;96.50;;;;;;10308406;28;20413;-64
2023/08/02 06:53:12;;;;;;;7.70;4.67;;;19.40;96.90;;;;;;10316002;28;20406;-65
2023/08/02 06:58:12;;;;;;;9.27;4.80;;;19.40;96.80;;;;;;10526845;23;20442;-73
2023/08/02 07:03:13;;;;;;;6.57;4.47;;;19.40;96.80;;;;;;10318988;28;20414;-74
2023/08/02 07:08:14;;;;;;;7.40;4.30;;;19.30;96.80;;;;;;10322052;28;20419;-73
2023/08/02 07:13:14;;;;;;;7.17;4.13;;;19.40;96.80;;;;;;10316717;28;20414;-73
2023/08/02 07:18:15;;;;;;;8.30;4.70;;;19.40;96.80;;;;;;10315618;28;21015;-75
2023/08/02 07:23:15;;;;;;;6.50;4.20;;;19.30;96.80;;;;;;10315591;28;20460;-74
2023/08/02 07:28:16;;;;;;;7.47;4.77;;;19.30;96.80;;;;;;10319134;28;20422;-73
2023/08/02 07:33:17;;;;;;;7.17;4.73;;;19.30;96.80;;;;;;10317460;28;20429;-74
2023/08/02 07:38:17;;;;;;;7.10;4.27;;;19.30;96.80;;;;;;10316226;28;20418;-74
2023/08/02 07:50:15;;;;;;;7.13;4.38;;;18.90;97.30;;;;;;10482667;28;20451;-67
2023/08/02 07:55:16;;;;;;;7.63;4.50;;;19.00;97.60;;;;;;10436972;28;20582;-68
2023/08/02 08:00:17;;;;;;;6.20;4.40;;;19.10;97.50;;;;;;10434993;28;20403;-67
2023/08/02 08:05:18;;;;;;;8.20;4.38;;;19.10;97.40;;;;;;10430414;28;20422;-67
2023/08/02 08:10:19;;;;;;;6.93;4.10;;;19.20;97.30;;;;;;10442538;28;20418;-67
2023/08/02 08:15:19;;;;;;;7.13;4.30;;;19.20;97.20;;;;;;10440092;28;20402;-67
2023/08/02 08:20:20;;;;;;;7.67;4.33;;;19.30;97.20;;;;;;10442507;28;20400;-65
2023/08/02 08:25:21;;;;;;;8.77;4.40;;;19.20;97.10;;;;;;10447801;28;20392;-66
2023/08/02 08:30:21;;;;;;;6.80;4.40;;;19.30;97.10;;;;;;10443490;28;21270;-68
2023/08/02 08:35:22;;;;;;;5.90;4.10;;;19.30;97.10;;;;;;10440618;28;20409;-65
2023/08/02 08:40:23;;;;;;;5.90;3.93;;;19.30;97.10;;;;;;10437254;28;20394;-67
2023/08/02 08:45:25;;;;;;;6.37;4.43;;;19.30;97.10;;;;;;10442448;28;20747;-67
2023/08/02 08:50:27;;;;;;;6.13;4.15;;;19.30;97.10;;;;;;10474652;28;20413;-67
2023/08/02 08:55:31;;;;;;;6.85;4.25;;;19.30;97.10;;;;;;10472484;28;20420;-66
2023/08/02 09:00:33;;;;;;;6.90;4.25;;;19.30;97.10;;;;;;10464244;28;20447;-67
2023/08/02 09:05:35;;;;;;;6.53;4.13;;;19.30;97.20;;;;;;10446150;28;20417;-67
2023/08/02 09:10:36;;;;;;;6.32;4.20;;;19.30;97.10;;;;;;10457683;28;20531;-67
2023/08/02 09:15:36;;;;;;;6.38;4.57;;;19.30;97.20;;;;;;10456473;28;20532;-66
2023/08/02 09:20:37;;;;;;;6.80;4.33;;;19.30;97.20;;;;;;10449197;28;20415;-67
2023/08/02 09:25:38;;;;;;;6.70;4.57;;;19.40;97.30;;;;;;10446104;28;20415;-67
2023/08/02 09:30:40;;;;;;;5.23;3.90;;;19.30;97.20;;;;;;10451038;28;21240;-67
2023/08/02 09:35:50;;;;;;;5.43;4.20;;;19.40;97.20;;;;;;10456338;28;20470;-66
2023/08/02 09:40:51;;;;;;;5.78;3.95;;;19.40;97.20;;;;;;10450577;28;20435;-66
2023/08/02 09:45:52;;;;;;;6.75;4.18;;;19.40;97.20;;;;;;10453435;28;20510;-67
2023/08/02 09:50:58;;;;;;;6.15;4.20;;;19.40;97.20;;;;;;10450436;28;20410;-67
2023/08/02 09:56:00;;;;;;;6.30;4.20;;;19.40;97.20;;;;;;10451256;28;20568;-67
2023/08/02 10:01:02;;;;;;;5.90;3.97;;;19.40;97.20;;;;;;10456527;28;20404;-67
2023/08/02 10:06:06;;;;;;;5.20;4.27;;;19.40;97.30;;;;;;10448682;28;20407;-66
2023/08/02 10:11:08;;;;;;;5.30;3.92;;;19.40;97.30;;;;;;10438904;28;20415;-66
2023/08/02 10:16:10;;;;;;;5.87;4.07;;;19.40;97.40;;;;;;10448673;28;20409;-67
2023/08/02 10:21:13;;;;;;;5.38;3.80;;;19.40;97.50;;;;;;10443770;28;20420;-66
2023/08/02 10:26:16;;;;;;;6.78;3.88;;;19.50;97.50;;;;;;10451834;28;20424;-67
2023/08/02 10:31:17;;;;;;;4.90;3.70;;;19.50;97.50;;;;;;10448386;28;20926;-67
2023/08/02 10:36:18;;;;;;;5.53;3.45;;;19.50;97.50;;;;;;10444205;28;20409;-66
2023/08/02 10:41:22;;;;;;;4.53;3.70;;;19.50;97.60;;;;;;10449949;28;20972;-67
2023/08/02 10:46:28;;;;;;;4.70;3.57;;;19.60;97.60;;;;;;10440946;28;20910;-66
2023/08/02 10:51:33;;;;;;;4.25;3.47;;;19.60;97.60;;;;;;10453332;28;20396;-67
2023/08/02 10:56:34;;;;;;;5.20;3.45;;;19.60;97.80;;;;;;10439338;28;20409;-66
2023/08/02 11:01:35;;;;;;;4.45;3.40;;;19.60;97.70;;;;;;10451074;28;20405;-67
2023/08/02 11:06:35;;;;;;;4.95;3.50;;;19.60;97.70;;;;;;10450356;28;20437;-67
2023/08/02 11:11:36;;;;;;;4.60;3.25;;;19.60;97.60;;;;;;10452768;28;20888;-67
2023/08/02 11:16:41;;;;;;;4.00;3.20;;;19.60;97.60;;;;;;10446100;28;20412;-66
2023/08/02 11:21:52;;;;;;;3.43;3.00;;;19.70;97.50;;;;;;10444628;28;20417;-66
2023/08/02 11:26:59;;;;;;;3.92;3.33;;;19.70;97.40;;;;;;10445471;28;20458;-67
2023/08/02 11:32:04;;;;;;;3.95;3.30;;;19.90;97.40;;;;;;10452722;28;20829;-67
2023/08/02 11:37:08;;;;;;;3.70;3.10;;;19.90;97.50;;;;;;10450722;28;20547;-66
2023/08/02 11:42:08;;;;;;;3.50;3.10;;;20.00;97.50;;;;;;10448493;28;20918;-67
2023/08/02 11:47:09;;;;;;;3.40;3.10;;;20.10;97.50;;;;;;10442771;28;20504;-66
2023/08/02 11:52:10;;;;;;;2.93;2.63;;;20.10;97.40;;;;;;10447216;28;21197;-66
2023/08/02 11:57:11;;;;;;;3.78;2.88;;;20.20;97.30;;;;;;10452367;28;20417;-67
2023/08/02 12:02:25;;;;;;;3.20;2.90;;;20.30;97.30;;;;;;10444434;28;20419;-66
2023/08/02 12:07:31;;;;;;;3.15;2.80;;;20.30;97.40;;;;;;10444355;28;20464;-66
2023/08/02 12:12:33;;;;;;;3.13;2.58;;;20.40;97.30;;;;;;10435122;28;20396;-66
2023/08/02 12:17:34;;;;;;;3.95;2.83;;;20.40;97.50;;;;;;10454194;28;20441;-68
2023/08/02 12:22:48;;;;;;;3.28;2.80;;;20.50;97.60;;;;;;10457824;28;20987;-68
2023/08/02 12:28:06;;;;;;;3.67;2.87;;;20.60;98.00;;;;;;10448328;28;20420;-68
2023/08/02 12:33:07;;;;;;;3.90;2.73;;;20.60;98.10;;;;;;10442794;28;21264;-68
2023/08/02 12:38:07;;;;;;;3.10;2.80;;;20.60;98.20;;;;;;10456272;28;20391;-68
2023/08/02 12:43:08;;;;;;;3.57;2.83;;;20.60;98.20;;;;;;10454836;28;20407;-68
2023/08/02 12:48:09;;;;;;;5.15;3.10;;;20.60;98.40;;;;;;10442576;28;20447;-68
2023/08/02 12:53:09;;;;;;;3.30;2.90;;;20.60;98.50;;;;;;10442731;28;20409;-68
2023/08/02 12:58:10;;;;;;;5.28;3.15;;;20.70;98.80;;;;;;10453413;28;21034;-68
2023/08/02 13:03:11;;;;;;;5.53;3.08;;;20.70;98.80;;;;;;10444700;28;20419;-69
2023/08/02 13:08:15;;;;;;;4.28;2.60;;;20.80;98.80;;;;;;10450197;28;20443;-69
2023/08/02 13:13:15;;;;;;;4.82;2.58;;;20.90;99.00;;;;;;10441532;28;20409;-69
2023/08/02 13:18:16;;;;;;;4.07;2.83;;;20.90;99.10;;;;;;10454600;28;20759;-68
2023/08/02 13:23:16;;;;;;;4.82;2.70;;;21.00;99.10;;;;;;10442330;28;20446;-67
2023/08/02 13:28:17;;;;;;;3.80;2.50;;;21.00;99.00;;;;;;10447181;28;20473;-67
2023/08/02 13:33:18;;;;;;;3.65;2.30;;;21.10;98.80;;;;;;10439745;28;20810;-67
2023/08/02 13:38:18;;;;;;;3.97;2.53;;;21.20;98.60;;;;;;10452412;28;20412;-67
2023/08/02 13:43:19;;;;;;;3.80;2.40;;;21.20;98.60;;;;;;10444329;28;20437;-67
2023/08/02 13:48:29;;;;;;;4.15;2.38;;;21.20;98.40;;;;;;10449780;28;20439;-70
2023/08/02 13:53:30;;;;;;;4.57;1.90;;;21.20;98.30;;;;;;10450644;28;20878;-66
2023/08/02 13:58:31;;;;;;;2.80;2.10;;;21.30;98.00;;;;;;10446939;28;20967;-66
2023/08/02 14:03:32;;;;;;;5.33;2.13;;;21.30;97.70;;;;;;10447573;28;20409;-66
2023/08/02 14:08:32;;;;;;;3.20;1.90;;;21.30;97.60;;;;;;10446777;28;20776;-67
2023/08/02 14:13:33;;;;;;;3.10;1.90;;;21.40;97.60;;;;;;10447979;28;20755;-65
2023/08/02 14:18:34;;;;;;;2.87;1.80;;;21.40;97.40;;;;;;10452689;28;20392;-66
2023/08/02 14:23:35;;;;;;;2.57;2.00;;;21.50;97.30;;;;;;10448188;28;20923;-66
2023/08/02 14:28:36;;;;;;;2.72;1.83;;;21.40;97.10;;;;;;10451248;28;20437;-66
2023/08/02 14:33:36;;;;;;;3.57;1.83;;;21.40;97.20;;;;;;10450531;28;20486;-64
2023/08/02 14:38:39;;;;;;;4.77;1.73;;;21.40;97.10;;;;;;10448323;28;20426;-65
2023/08/02 14:43:39;;;;;;;3.70;1.67;;;21.40;97.00;;;;;;10448368;28;20907;-66
2023/08/02 14:48:40;;;;;;;2.95;1.60;;;21.30;96.90;;;;;;10437426;28;20481;-71
2023/08/02 14:53:42;;;;;;;4.25;1.80;;;21.30;96.90;;;;;;10438207;28;20407;-66
2023/08/02 14:58:42;;;;;;;3.28;1.73;;;21.30;96.90;;;;;;10447582;28;20401;-66
2023/08/02 15:03:43;;;;;;;5.38;1.67;;;21.30;96.80;;;;;;10440424;28;20489;-66
2023/08/02 15:08:44;;;;;;;4.22;1.40;;;21.20;96.60;;;;;;10443606;28;20462;-66
2023/08/02 15:13:44;;;;;;;3.43;1.40;;;21.20;96.40;;;;;;10444963;28;20480;-66
2023/08/02 15:18:45;;;;;;;4.73;1.70;;;21.20;96.20;;;;;;10452246;28;20466;-66
2023/08/02 15:23:46;;;;;;;4.87;1.70;;;21.10;96.30;;;;;;10443502;28;20796;-67
2023/08/02 15:28:46;;;;;;;4.00;1.57;;;21.10;96.00;;;;;;10450326;28;20417;-67
2023/08/02 15:33:48;;;;;;;4.87;1.40;;;21.10;95.90;;;;;;10452927;28;20464;-66
2023/08/02 15:38:51;;;;;;;4.93;1.80;;;21.10;95.70;;;;;;10447558;28;20854;-68
2023/08/02 15:43:52;;;;;;;6.72;1.70;;;21.20;95.90;;;;;;10449007;28;20844;-67
2023/08/02 15:48:53;;;;;;;7.57;1.67;;;21.40;95.60;;;;;;10443501;28;20505;-67
2023/08/02 15:53:53;;;;;;;8.70;1.50;;;21.50;95.10;;;;;;10450577;28;21051;-71
2023/08/02 15:58:54;;;;;;;4.93;1.52;;;21.70;94.50;;;;;;10445842;28;20435;-68
2023/08/02 16:03:55;;;;;;;4.13;1.40;;;21.80;94.40;;;;;;10441991;28;20418;-67
2023/08/02 16:08:56;;;;;;;10.00;2.20;;;21.80;94.50;;;;;;10453590;28;20413;-66
2023/08/02 16:13:56;;;;;;;4.77;1.83;;;21.80;94.30;;;;;;10454492;28;20545;-66
2023/08/02 16:18:57;;;;;;;5.27;1.70;;;21.80;94.40;;;;;;10463016;28;20554;-67
2023/08/02 16:23:58;;;;;;;4.87;1.73;;;21.80;94.50;;;;;;10461039;28;20913;-67
2023/08/02 16:28:58;;;;;;;5.95;1.60;;;21.80;94.50;;;;;;10458266;28;20444;-66
2023/08/02 16:33:59;;;;;;;6.15;1.70;;;21.80;94.60;;;;;;10456725;28;20396;-67
2023/08/02 16:38:59;;;;;;;6.10;1.90;;;21.80;94.60;;;;;;10459369;28;20408;-67
2023/08/02 16:44:00;;;;;;;8.37;1.87;;;21.70;94.50;;;;;;10459339;28;20416;-66
2023/08/02 16:49:01;;;;;;;7.33;1.70;;;21.70;94.50;;;;;;10458915;28;20494;-69
2023/08/02 16:54:02;;;;;;;5.80;1.70;;;21.50;93.10;;;;;;10464297;28;20418;-68
2023/08/02 16:59:02;;;;;;;7.70;1.85;;;21.40;92.10;;;;;;10461396;28;20407;-69
2023/08/02 17:04:03;;;;;;;6.23;1.83;;;21.30;92.20;;;;;;10460503;28;20414;-69
2023/08/02 17:09:04;;;;;;;10.43;2.30;;;20.70;92.40;;;;;;10460545;28;20543;-68
2023/08/02 17:14:05;;;;;;;7.03;2.27;;;21.00;93.00;;;;;;10454202;28;20408;-67
2023/08/02 17:19:06;;;;;;;12.70;2.40;;;21.00;93.30;;;;;;10452309;28;20403;-66
2023/08/02 17:24:06;;;;;;;7.60;2.47;;;21.10;93.70;;;;;;10456460;28;20894;-67
2023/08/02 17:29:07;;;;;;;10.27;2.40;;;21.00;93.90;;;;;;10456328;28;20418;-66
2023/08/02 17:34:11;;;;;;;8.77;2.50;;;21.00;94.30;;;;;;10450010;28;20403;-68
2023/08/02 17:39:12;;;;;;;8.67;2.30;;;21.00;94.50;;;;;;10459458;28;21117;-67
2023/08/02 17:44:12;;;;;;;11.75;2.70;;;21.00;94.70;;;;;;10455210;28;20391;-67
2023/08/02 17:49:14;;;;;;;6.13;2.13;;;21.00;95.00;;;;;;10456023;28;20415;-65
2023/08/02 17:54:14;;;;;;;8.50;2.40;;;21.00;95.10;;;;;;10455546;28;20432;-66
2023/08/02 17:59:17;;;;;;;7.03;2.30;;;21.00;95.30;;;;;;10455302;28;20416;-67
2023/08/02 18:04:22;;;;;;;8.17;2.30;;;21.00;95.20;;;;;;10447917;28;20496;-67
2023/08/02 18:09:23;;;;;;;5.45;2.00;;;21.00;95.40;;;;;;10450457;28;20424;-68
2023/08/02 18:14:23;;;;;;;6.30;2.10;;;21.00;95.40;;;;;;10440269;28;20999;-68
2023/08/02 18:19:24;;;;;;;6.13;2.23;;;21.10;95.40;;;;;;10439002;28;20892;-67
2023/08/02 18:24:24;;;;;;;5.30;2.20;;;21.00;95.40;;;;;;10437459;28;20408;-67
2023/08/02 18:29:27;;;;;;;5.90;2.00;;;21.00;95.50;;;;;;10452769;28;20413;-67
2023/08/02 18:34:28;;;;;;;5.18;2.15;;;21.00;95.50;;;;;;10442018;28;20487;-67
2023/08/02 18:39:31;;;;;;;6.13;2.37;;;21.00;95.60;;;;;;10446612;28;20395;-68
2023/08/02 18:44:31;;;;;;;4.78;1.92;;;21.00;95.60;;;;;;10439349;28;20404;-68
2023/08/02 18:49:32;;;;;;;7.50;2.10;;;21.00;95.60;;;;;;10446655;28;20408;-67
2023/08/02 18:54:32;;;;;;;5.67;2.13;;;21.00;95.90;;;;;;10444196;28;20402;-68
2023/08/02 18:59:35;;;;;;;3.80;1.80;;;21.00;95.70;;;;;;10436496;28;20408;-66
2023/08/02 19:04:35;;;;;;;6.05;2.03;;;20.90;95.70;;;;;;10422951;28;20417;-67
2023/08/02 19:09:36;;;;;;;5.30;2.10;;;20.90;96.00;;;;;;10429306;28;20780;-67
2023/08/02 19:14:37;;;;;;;3.60;2.00;;;20.90;95.80;;;;;;10432689;28;20405;-66
2023/08/02 19:19:38;;;;;;;4.27;1.80;;;20.90;95.80;;;;;;10432658;28;20553;-67
2023/08/02 19:24:40;;;;;;;3.93;2.00;;;20.80;95.80;;;;;;10435675;28;20411;-66
2023/08/02 19:29:42;;;;;;;5.63;2.05;;;20.80;95.90;;;;;;10433586;28;20432;-65
2023/08/02 19:34:49;;;;;;;5.97;2.07;;;20.80;96.00;;;;;;10433384;28;20416;-67
2023/08/02 19:39:49;;;;;;;5.40;1.83;;;20.80;96.00;;;;;;10435048;28;20400;-66
2023/08/02 19:44:50;;;;;;;6.53;1.83;;;20.70;96.00;;;;;;10435241;28;20397;-67
2023/08/02 19:49:53;;;;;;;5.07;2.00;;;20.70;96.10;;;;;;10435763;28;20854;-67
2023/08/02 19:54:54;;;;;;;5.20;2.20;;;20.70;96.10;;;;;;10433252;28;20402;-67
2023/08/02 19:59:54;;;;;;;6.00;2.50;;;20.70;96.20;;;;;;10431684;28;20410;-67
2023/08/02 20:04:55;;;;;;;6.27;1.90;;;20.70;96.20;;;;;;10443010;28;20397;-68
2023/08/02 20:09:56;;;;;;;5.57;2.27;;;20.70;96.30;;;;;;10431631;28;21033;-66
2023/08/02 20:14:56;;;;;;;6.07;2.10;;;20.70;96.30;;;;;;10436740;28;20496;-68
2023/08/02 20:19:57;;;;;;;4.00;2.10;;;20.60;96.40;;;;;;10431707;28;20443;-68
2023/08/02 20:24:57;;;;;;;5.70;2.30;;;20.60;96.40;;;;;;10434267;28;20401;-68
2023/08/02 20:29:58;;;;;;;4.60;2.20;;;20.60;96.50;;;;;;10440222;28;20949;-68
2023/08/02 20:34:59;;;;;;;5.57;2.30;;;20.60;96.50;;;;;;10429988;28;20992;-67
2023/08/02 20:39:59;;;;;;;5.38;2.38;;;20.60;96.60;;;;;;10437515;28;20501;-69
2023/08/02 20:45:00;;;;;;;4.18;2.30;;;20.50;96.60;;;;;;10433795;28;20412;-68
2023/08/02 20:50:00;;;;;;;5.28;2.00;;;20.50;96.60;;;;;;10433566;28;20476;-68
2023/08/02 20:55:02;;;;;;;5.10;2.20;;;20.50;96.60;;;;;;10429415;28;20405;-69
2023/08/02 21:00:08;;;;;;;4.93;2.00;;;20.50;96.70;;;;;;10443414;28;20494;-68
2023/08/02 21:05:09;;;;;;;4.00;1.70;;;20.40;96.70;;;;;;10440851;28;20432;-67
2023/08/02 21:10:10;;;;;;;3.93;1.90;;;20.50;96.80;;;;;;10449057;28;20513;-69
2023/08/02 21:15:11;;;;;;;4.20;1.93;;;20.40;96.80;;;;;;10441938;28;20397;-68
2023/08/02 21:20:40;;;;;;;3.53;1.80;;;20.40;96.80;;;;;;10446834;28;20401;-69
2023/08/02 21:25:46;;;;;;;4.25;1.85;;;20.40;96.90;;;;;;10438266;28;21634;-67
2023/08/02 21:30:55;;;;;;;3.47;1.67;;;20.40;96.90;;;;;;10442856;28;20401;-67
2023/08/02 21:35:58;;;;;;;5.10;2.00;;;20.40;96.90;;;;;;10444974;28;20660;-68
2023/08/02 21:41:01;;;;;;;4.17;1.80;;;20.40;96.90;;;;;;10443792;28;20395;-68
2023/08/02 21:46:04;;;;;;;3.58;1.77;;;20.40;97.00;;;;;;10434758;28;20464;-67
2023/08/02 21:51:05;;;;;;;3.88;1.73;;;20.40;97.00;;;;;;10442613;28;20487;-67
2023/08/02 21:56:09;;;;;;;5.18;1.75;;;20.30;97.00;;;;;;10441580;28;21015;-67
2023/08/02 22:01:13;;;;;;;2.90;1.60;;;20.30;97.00;;;;;;10449124;28;20575;-69
2023/08/02 22:06:31;;;;;;;4.13;1.75;;;20.30;97.00;;;;;;10446624;28;20916;-67
2023/08/02 22:11:32;;;;;;;3.00;1.67;;;20.30;97.10;;;;;;10448923;28;20400;-68
2023/08/02 22:16:33;;;;;;;3.10;1.63;;;20.30;97.10;;;;;;10440397;28;20401;-67
2023/08/02 22:21:34;;;;;;;3.88;1.80;;;20.30;97.10;;;;;;10442156;28;20406;-69
2023/08/02 22:26:34;;;;;;;3.55;1.70;;;20.30;97.10;;;;;;10442155;28;20422;-68
2023/08/02 22:31:35;;;;;;;4.03;1.60;;;20.20;97.10;;;;;;10442544;28;20870;-67
2023/08/02 22:36:36;;;;;;;3.53;1.65;;;20.30;97.10;;;;;;10445024;28;20401;-68
2023/08/02 22:41:36;;;;;;;2.00;1.58;;;20.20;97.10;;;;;;10444512;28;20815;-68
2023/08/02 22:46:37;;;;;;;3.60;1.80;;;20.20;97.20;;;;;;10444167;28;20409;-67
2023/08/02 22:51:37;;;;;;;3.58;1.80;;;20.20;97.20;;;;;;10441662;28;20390;-68
2023/08/02 22:56:38;;;;;;;3.15;1.60;;;20.20;97.20;;;;;;10443151;28;20409;-68
2023/08/02 23:01:39;;;;;;;2.35;1.70;;;20.20;97.20;;;;;;10446238;28;20832;-68
2023/08/02 23:06:39;;;;;;;2.87;1.77;;;20.20;97.30;;;;;;10445332;28;20471;-68
2023/08/02 23:11:41;;;;;;;3.27;1.70;;;20.20;97.30;;;;;;10450394;28;20512;-68
2023/08/02 23:16:42;;;;;;;6.05;1.70;;;20.20;97.40;;;;;;10454975;28;20396;-67
2023/08/02 23:21:44;;;;;;;3.27;1.60;;;20.10;97.40;;;;;;10447889;28;20566;-68
2023/08/02 23:26:44;;;;;;;1.83;1.50;;;20.10;97.40;;;;;;10450253;28;20932;-67
2023/08/02 23:31:46;;;;;;;2.43;1.70;;;20.20;97.50;;;;;;10443159;28;20750;-68
2023/08/02 23:36:49;;;;;;;3.07;1.87;;;20.10;97.50;;;;;;10449750;28;20410;-67
2023/08/02 23:41:49;;;;;;;2.13;1.63;;;20.10;97.50;;;;;;10445571;28;20397;-68
2023/08/02 23:46:50;;;;;;;2.73;1.60;;;20.10;97.60;;;;;;10451390;28;20891;-67
2023/08/02 23:51:51;;;;;;;4.30;1.93;;;20.10;97.60;;;;;;10444629;28;20405;-67
2023/08/02 23:56:51;;;;;;;2.63;1.70;;;20.10;97.60;;;;;;10445903;28;20412;-68
